Pixley, California
Current Conditions -  °F | °C
As of 9:15 AM on Sunday 21 Dec 2014 (Local Time) from KPTV Reporting Station
Broken Clouds Broken Clouds  
Wind Chill: 10°   Ceiling: 600
Heat Index: 10°   Visibility: 10mi
Dew Point:   Wind: 0mph
Humidity: 87%   Direction: NA
Pressure: 30.31"   Gusts: NA
Location:  35.97°N, 119.29°W
Report Text: KPTV 211715Z AUTO 00000KT 10SM BKN006 10/08 A3031 RMK AO1
Loading
Personal Weather Stations






























Interactive Weather Map New forecast layout! Learn more

10-Day Weather Forecast

Advertisements
Track Severe Weather on mobile